ARG1019 SAZM-SABE
Flight info
| Callsign | ARG1019 |
|---|---|
| Flight time | 0h 56m |
| Altitude | 25000 |
| Route | PULPA1D PULPA DCT TENIL TENIL8R |
| Aircraft | MD83/M-SDFGIRWY/C |
Departure
| Time | 2026-04-21 18:34 |
|---|---|
| Airport | Ástor Piazzola International Airport (SAZM) |
Arrival
| Time | 2026-04-21 19:31 |
|---|---|
| Airport | Aeroparque Jorge Newbery (SABE) |
| Time | Latitude | Longitude | Altitude | Speed | Heading |
|---|---|---|---|---|---|
| 2026-04-21 18:26 | -37.93401 | -57.58084 | 49 ft | 0 kts | 357° |
| 2026-04-21 18:27 | -37.93391 | -57.58082 | 49 ft | 3 kts | 9° |
| 2026-04-21 18:27 | -37.93375 | -57.58079 | 47 ft | 4 kts | 9° |
| 2026-04-21 18:27 | -37.93356 | -57.58075 | 49 ft | 0 kts | 9° |
| 2026-04-21 18:30 | -37.93346 | -57.58067 | 49 ft | 2 kts | 40° |
| 2026-04-21 18:30 | -37.93332 | -57.58051 | 49 ft | 6 kts | 38° |
| 2026-04-21 18:31 | -37.93299 | -57.58036 | 46 ft | 5 kts | 4° |
| 2026-04-21 18:31 | -37.93238 | -57.58038 | 48 ft | 12 kts | 14° |
| 2026-04-21 18:31 | -37.93155 | -57.57980 | 47 ft | 13 kts | 31° |
| 2026-04-21 18:31 | -37.93082 | -57.58003 | 47 ft | 12 kts | 310° |
| 2026-04-21 18:32 | -37.93020 | -57.58117 | 45 ft | 18 kts | 303° |
| 2026-04-21 18:32 | -37.92962 | -57.58239 | 45 ft | 13 kts | 302° |
| 2026-04-21 18:32 | -37.92932 | -57.58334 | 44 ft | 11 kts | 276° |
| 2026-04-21 18:32 | -37.92915 | -57.58368 | 42 ft | 1 kts | 348° |
| 2026-04-21 18:33 | -37.92907 | -57.58362 | 43 ft | 0 kts | 49° |
| 2026-04-21 18:33 | -37.92905 | -57.58351 | 44 ft | 0 kts | 96° |
| 2026-04-21 18:33 | -37.92920 | -57.58309 | 42 ft | 24 kts | 117° |
| 2026-04-21 18:33 | -37.93148 | -57.57856 | 46 ft | 97 kts | 124° |
| 2026-04-21 18:34 | -37.93619 | -57.56909 | 54 ft | 154 kts | 120° |
| 2026-04-21 18:34 | -37.94226 | -57.55701 | 661 ft | 164 kts | 127° |
| 2026-04-21 18:34 | -37.95028 | -57.54686 | 1637 ft | 166 kts | 137° |
| 2026-04-21 18:34 | -37.95893 | -57.53567 | 1989 ft | 192 kts | 114° |
| 2026-04-21 18:35 | -37.96217 | -57.52508 | 2337 ft | 199 kts | 96° |
| 2026-04-21 18:35 | -37.96035 | -57.50081 | 3041 ft | 219 kts | 66° |
| 2026-04-21 18:35 | -37.95145 | -57.48462 | 3579 ft | 233 kts | 43° |
| 2026-04-21 18:35 | -37.93915 | -57.47034 | 4194 ft | 245 kts | 42° |
| 2026-04-21 18:36 | -37.92667 | -57.45537 | 4937 ft | 250 kts | 43° |
| 2026-04-21 18:36 | -37.91426 | -57.43959 | 5690 ft | 253 kts | 44° |
| 2026-04-21 18:36 | -37.90213 | -57.42357 | 6413 ft | 258 kts | 44° |
| 2026-04-21 18:36 | -37.88960 | -57.40629 | 7006 ft | 265 kts | 46° |
| 2026-04-21 18:37 | -37.87751 | -57.38896 | 7759 ft | 267 kts | 46° |
| 2026-04-21 18:37 | -37.86535 | -57.37091 | 8472 ft | 271 kts | 47° |
| 2026-04-21 18:37 | -37.85322 | -57.35248 | 9211 ft | 274 kts | 47° |
| 2026-04-21 18:37 | -37.84109 | -57.33375 | 9977 ft | 276 kts | 48° |
| 2026-04-21 18:38 | -37.82866 | -57.31435 | 10293 ft | 294 kts | 48° |
| 2026-04-21 18:38 | -37.81540 | -57.29359 | 10509 ft | 313 kts | 48° |
| 2026-04-21 18:38 | -37.80132 | -57.27144 | 10750 ft | 332 kts | 48° |
| 2026-04-21 18:38 | -37.78644 | -57.24822 | 11013 ft | 347 kts | 46° |
| 2026-04-21 18:39 | -37.76753 | -57.22923 | 11451 ft | 350 kts | 23° |
| 2026-04-21 18:39 | -37.74419 | -57.22174 | 12127 ft | 349 kts | 360° |
| 2026-04-21 18:39 | -37.72015 | -57.22525 | 12854 ft | 349 kts | 347° |
| 2026-04-21 18:39 | -37.69635 | -57.23219 | 13541 ft | 353 kts | 346° |
| 2026-04-21 18:40 | -37.67236 | -57.23983 | 14138 ft | 357 kts | 345° |
| 2026-04-21 18:40 | -37.64820 | -57.24782 | 14721 ft | 359 kts | 344° |
| 2026-04-21 18:40 | -37.63218 | -57.25317 | 15112 ft | 360 kts | 344° |
| 2026-04-21 18:40 | -37.59955 | -57.26376 | 15842 ft | 364 kts | 345° |
| 2026-04-21 18:41 | -37.57477 | -57.27142 | 16401 ft | 368 kts | 345° |
| 2026-04-21 18:41 | -37.55006 | -57.27881 | 16979 ft | 370 kts | 345° |
| 2026-04-21 18:41 | -37.52487 | -57.28619 | 17574 ft | 373 kts | 345° |
| 2026-04-21 18:41 | -37.49948 | -57.29354 | 18139 ft | 376 kts | 345° |
| 2026-04-21 18:42 | -37.47386 | -57.30092 | 18655 ft | 379 kts | 345° |
| 2026-04-21 18:42 | -37.44809 | -57.30836 | 19187 ft | 381 kts | 344° |
| 2026-04-21 18:42 | -37.42297 | -57.31852 | 19700 ft | 379 kts | 331° |
| 2026-04-21 18:42 | -37.40041 | -57.33572 | 20221 ft | 380 kts | 324° |
| 2026-04-21 18:43 | -37.37859 | -57.35468 | 20699 ft | 382 kts | 324° |
| 2026-04-21 18:43 | -37.35682 | -57.37397 | 21197 ft | 385 kts | 323° |
| 2026-04-21 18:43 | -37.33490 | -57.39333 | 21949 ft | 386 kts | 323° |
| 2026-04-21 18:43 | -37.31275 | -57.41296 | 22587 ft | 392 kts | 324° |
| 2026-04-21 18:44 | -37.29022 | -57.43253 | 23073 ft | 395 kts | 324° |
| 2026-04-21 18:44 | -37.26748 | -57.45193 | 23609 ft | 397 kts | 324° |
| 2026-04-21 18:44 | -37.24451 | -57.47134 | 24066 ft | 398 kts | 324° |
| 2026-04-21 18:44 | -37.22148 | -57.49073 | 24497 ft | 400 kts | 324° |
| 2026-04-21 18:45 | -37.19845 | -57.51010 | 24728 ft | 406 kts | 324° |
| 2026-04-21 18:45 | -37.17488 | -57.52992 | 24837 ft | 406 kts | 324° |
| 2026-04-21 18:45 | -37.15186 | -57.54926 | 24897 ft | 388 kts | 324° |
| 2026-04-21 18:45 | -37.12999 | -57.56763 | 24921 ft | 370 kts | 324° |
| 2026-04-21 18:46 | -37.10870 | -57.58553 | 24962 ft | 368 kts | 324° |
| 2026-04-21 18:46 | -37.08734 | -57.60355 | 24951 ft | 372 kts | 324° |
| 2026-04-21 18:46 | -37.06587 | -57.62168 | 24941 ft | 371 kts | 324° |
| 2026-04-21 18:46 | -37.04457 | -57.63969 | 24947 ft | 369 kts | 324° |
| 2026-04-21 18:47 | -37.02325 | -57.65768 | 24949 ft | 370 kts | 324° |
| 2026-04-21 18:47 | -37.00152 | -57.67504 | 24947 ft | 372 kts | 332° |
| 2026-04-21 18:47 | -36.97658 | -57.68440 | 24956 ft | 380 kts | 348° |
| 2026-04-21 18:47 | -36.95011 | -57.68775 | 24945 ft | 384 kts | 351° |
| 2026-04-21 18:48 | -36.92342 | -57.69008 | 24944 ft | 385 kts | 351° |
| 2026-04-21 18:48 | -36.89669 | -57.69226 | 24943 ft | 385 kts | 351° |
| 2026-04-21 18:48 | -36.87002 | -57.69441 | 24942 ft | 384 kts | 351° |
| 2026-04-21 18:48 | -36.84338 | -57.69669 | 24940 ft | 383 kts | 351° |
| 2026-04-21 18:49 | -36.81686 | -57.69919 | 24942 ft | 382 kts | 350° |
| 2026-04-21 18:49 | -36.79036 | -57.70190 | 24942 ft | 382 kts | 350° |
| 2026-04-21 18:49 | -36.77282 | -57.70378 | 24938 ft | 382 kts | 350° |
| 2026-04-21 18:49 | -36.73771 | -57.70764 | 24937 ft | 383 kts | 350° |
| 2026-04-21 18:50 | -36.71119 | -57.71058 | 24931 ft | 383 kts | 350° |
| 2026-04-21 18:50 | -36.68461 | -57.71352 | 24933 ft | 383 kts | 350° |
| 2026-04-21 18:50 | -36.65803 | -57.71644 | 24930 ft | 384 kts | 350° |
| 2026-04-21 18:50 | -36.64005 | -57.71839 | 24936 ft | 384 kts | 349° |
| 2026-04-21 18:51 | -36.61341 | -57.72128 | 24929 ft | 384 kts | 350° |
| 2026-04-21 18:51 | -36.57805 | -57.72508 | 24936 ft | 384 kts | 350° |
| 2026-04-21 18:51 | -36.56049 | -57.72697 | 24936 ft | 383 kts | 350° |
| 2026-04-21 18:51 | -36.52495 | -57.73073 | 24931 ft | 382 kts | 350° |
| 2026-04-21 18:52 | -36.50742 | -57.73258 | 24923 ft | 382 kts | 350° |
| 2026-04-21 18:52 | -36.48095 | -57.73538 | 24926 ft | 383 kts | 350° |
| 2026-04-21 18:52 | -36.45441 | -57.73820 | 24921 ft | 383 kts | 350° |
| 2026-04-21 18:52 | -36.42787 | -57.74103 | 24928 ft | 383 kts | 350° |
| 2026-04-21 18:53 | -36.40133 | -57.74388 | 24924 ft | 383 kts | 350° |
| 2026-04-21 18:53 | -36.37470 | -57.74671 | 24923 ft | 384 kts | 350° |
| 2026-04-21 18:53 | -36.34808 | -57.74953 | 24921 ft | 384 kts | 350° |
| 2026-04-21 18:53 | -36.32918 | -57.75153 | 24923 ft | 384 kts | 350° |
| 2026-04-21 18:54 | -36.30251 | -57.75436 | 24919 ft | 384 kts | 350° |
| 2026-04-21 18:54 | -36.27585 | -57.75718 | 24921 ft | 385 kts | 350° |
| 2026-04-21 18:54 | -36.24917 | -57.76000 | 24918 ft | 385 kts | 350° |
| 2026-04-21 18:54 | -36.22247 | -57.76281 | 24917 ft | 385 kts | 350° |
| 2026-04-21 18:55 | -36.19575 | -57.76564 | 24917 ft | 385 kts | 350° |
| 2026-04-21 18:55 | -36.16901 | -57.76846 | 24917 ft | 386 kts | 350° |
| 2026-04-21 18:55 | -36.14226 | -57.77128 | 24917 ft | 386 kts | 350° |
| 2026-04-21 18:55 | -36.11544 | -57.77409 | 24918 ft | 386 kts | 350° |
| 2026-04-21 18:56 | -36.08872 | -57.77688 | 24915 ft | 386 kts | 350° |
| 2026-04-21 18:56 | -36.06193 | -57.77968 | 24913 ft | 386 kts | 350° |
| 2026-04-21 18:56 | -36.03513 | -57.78248 | 24912 ft | 387 kts | 350° |
| 2026-04-21 18:56 | -36.00825 | -57.78530 | 24910 ft | 387 kts | 350° |
| 2026-04-21 18:57 | -35.98146 | -57.78811 | 24914 ft | 387 kts | 350° |
| 2026-04-21 18:57 | -35.95502 | -57.79087 | 24914 ft | 386 kts | 350° |
| 2026-04-21 18:57 | -35.92825 | -57.79367 | 24915 ft | 386 kts | 350° |
| 2026-04-21 18:57 | -35.90146 | -57.79647 | 24918 ft | 387 kts | 350° |
| 2026-04-21 18:58 | -35.87465 | -57.79927 | 24909 ft | 386 kts | 350° |
| 2026-04-21 18:58 | -35.84781 | -57.80207 | 24907 ft | 386 kts | 350° |
| 2026-04-21 18:58 | -35.82105 | -57.80486 | 24910 ft | 386 kts | 350° |
| 2026-04-21 18:58 | -35.79432 | -57.80764 | 24906 ft | 385 kts | 350° |
| 2026-04-21 18:59 | -35.76758 | -57.81042 | 24908 ft | 386 kts | 350° |
| 2026-04-21 18:59 | -35.74079 | -57.81321 | 24908 ft | 387 kts | 350° |
| 2026-04-21 18:59 | -35.71396 | -57.81601 | 24906 ft | 387 kts | 350° |
| 2026-04-21 18:59 | -35.68702 | -57.81883 | 24903 ft | 388 kts | 350° |
| 2026-04-21 19:00 | -35.66018 | -57.82162 | 24906 ft | 388 kts | 350° |
| 2026-04-21 19:00 | -35.63314 | -57.82443 | 24920 ft | 390 kts | 350° |
| 2026-04-21 19:00 | -35.60601 | -57.82725 | 24919 ft | 391 kts | 351° |
| 2026-04-21 19:00 | -35.57900 | -57.83006 | 24896 ft | 388 kts | 351° |
| 2026-04-21 19:01 | -35.55219 | -57.83279 | 24891 ft | 386 kts | 351° |
| 2026-04-21 19:01 | -35.52540 | -57.83552 | 24898 ft | 387 kts | 350° |
| 2026-04-21 19:01 | -35.49886 | -57.83841 | 24899 ft | 388 kts | 350° |
| 2026-04-21 19:01 | -35.47196 | -57.84154 | 24903 ft | 389 kts | 350° |
| 2026-04-21 19:02 | -35.44500 | -57.84473 | 24902 ft | 390 kts | 350° |
| 2026-04-21 19:02 | -35.41810 | -57.84790 | 24786 ft | 382 kts | 350° |
| 2026-04-21 19:02 | -35.39194 | -57.85090 | 24426 ft | 373 kts | 350° |
| 2026-04-21 19:02 | -35.36641 | -57.85381 | 24086 ft | 364 kts | 349° |
| 2026-04-21 19:03 | -35.34147 | -57.85664 | 23751 ft | 356 kts | 349° |
| 2026-04-21 19:03 | -35.31708 | -57.85942 | 23372 ft | 348 kts | 349° |
| 2026-04-21 19:03 | -35.29322 | -57.86214 | 22971 ft | 341 kts | 349° |
| 2026-04-21 19:03 | -35.26988 | -57.86482 | 22572 ft | 333 kts | 349° |
| 2026-04-21 19:04 | -35.24700 | -57.86746 | 22182 ft | 327 kts | 349° |
| 2026-04-21 19:04 | -35.22459 | -57.87004 | 21792 ft | 321 kts | 349° |
| 2026-04-21 19:04 | -35.20256 | -57.87258 | 21408 ft | 315 kts | 349° |
| 2026-04-21 19:04 | -35.18093 | -57.87506 | 21024 ft | 309 kts | 349° |
| 2026-04-21 19:05 | -35.15963 | -57.87749 | 20651 ft | 304 kts | 349° |
| 2026-04-21 19:05 | -35.13878 | -57.87987 | 20289 ft | 299 kts | 349° |
| 2026-04-21 19:05 | -35.11818 | -57.88222 | 19920 ft | 294 kts | 349° |
| 2026-04-21 19:05 | -35.09788 | -57.88454 | 19560 ft | 290 kts | 349° |
| 2026-04-21 19:06 | -35.07791 | -57.88681 | 19206 ft | 286 kts | 349° |
| 2026-04-21 19:06 | -35.05846 | -57.88903 | 18846 ft | 283 kts | 349° |
| 2026-04-21 19:06 | -35.03878 | -57.89127 | 18506 ft | 279 kts | 349° |
| 2026-04-21 19:06 | -35.01970 | -57.89344 | 18151 ft | 276 kts | 349° |
| 2026-04-21 19:07 | -35.00126 | -57.89834 | 17758 ft | 267 kts | 334° |
| 2026-04-21 19:07 | -34.98544 | -57.90947 | 17370 ft | 260 kts | 317° |
| 2026-04-21 19:07 | -34.97356 | -57.92580 | 16984 ft | 257 kts | 301° |
| 2026-04-21 19:07 | -34.96595 | -57.94549 | 16607 ft | 256 kts | 292° |
| 2026-04-21 19:08 | -34.96003 | -57.96590 | 16222 ft | 255 kts | 290° |
| 2026-04-21 19:08 | -34.95462 | -57.98643 | 15851 ft | 253 kts | 289° |
| 2026-04-21 19:08 | -34.94960 | -58.00691 | 15484 ft | 252 kts | 288° |
| 2026-04-21 19:08 | -34.94479 | -58.02741 | 15102 ft | 251 kts | 288° |
| 2026-04-21 19:09 | -34.94008 | -58.04787 | 14739 ft | 250 kts | 288° |
| 2026-04-21 19:09 | -34.93541 | -58.06820 | 14390 ft | 249 kts | 288° |
| 2026-04-21 19:09 | -34.93072 | -58.08846 | 14038 ft | 248 kts | 288° |
| 2026-04-21 19:09 | -34.92601 | -58.10868 | 13673 ft | 247 kts | 288° |
| 2026-04-21 19:10 | -34.92136 | -58.12851 | 13289 ft | 246 kts | 288° |
| 2026-04-21 19:10 | -34.91657 | -58.14877 | 12905 ft | 246 kts | 288° |
| 2026-04-21 19:10 | -34.91186 | -58.16855 | 12525 ft | 246 kts | 288° |
| 2026-04-21 19:10 | -34.90711 | -58.18851 | 12147 ft | 245 kts | 288° |
| 2026-04-21 19:11 | -34.90234 | -58.20846 | 11773 ft | 245 kts | 288° |
| 2026-04-21 19:11 | -34.89758 | -58.22838 | 11408 ft | 245 kts | 288° |
| 2026-04-21 19:11 | -34.89282 | -58.24830 | 11035 ft | 245 kts | 288° |
| 2026-04-21 19:11 | -34.88805 | -58.26822 | 10678 ft | 245 kts | 287° |
| 2026-04-21 19:12 | -34.88329 | -58.28815 | 10322 ft | 245 kts | 287° |
| 2026-04-21 19:12 | -34.87853 | -58.30808 | 9978 ft | 245 kts | 287° |
| 2026-04-21 19:12 | -34.87379 | -58.32802 | 9588 ft | 244 kts | 287° |
| 2026-04-21 19:12 | -34.86911 | -58.34762 | 9193 ft | 238 kts | 287° |
| 2026-04-21 19:13 | -34.86464 | -58.36638 | 8829 ft | 239 kts | 287° |
| 2026-04-21 19:13 | -34.86001 | -58.38585 | 8453 ft | 239 kts | 287° |
| 2026-04-21 19:13 | -34.85534 | -58.40536 | 8066 ft | 240 kts | 287° |
| 2026-04-21 19:13 | -34.85063 | -58.42490 | 7704 ft | 241 kts | 287° |
| 2026-04-21 19:14 | -34.84591 | -58.44444 | 7338 ft | 241 kts | 287° |
| 2026-04-21 19:14 | -34.84117 | -58.46405 | 6974 ft | 241 kts | 287° |
| 2026-04-21 19:14 | -34.83650 | -58.48337 | 6620 ft | 241 kts | 287° |
| 2026-04-21 19:14 | -34.83173 | -58.50324 | 6258 ft | 241 kts | 287° |
| 2026-04-21 19:15 | -34.82708 | -58.52260 | 5872 ft | 242 kts | 287° |
| 2026-04-21 19:15 | -34.81977 | -58.54082 | 5502 ft | 241 kts | 312° |
| 2026-04-21 19:15 | -34.80720 | -58.55423 | 5154 ft | 242 kts | 321° |
| 2026-04-21 19:15 | -34.79380 | -58.56685 | 4810 ft | 244 kts | 321° |
| 2026-04-21 19:16 | -34.78035 | -58.57956 | 4496 ft | 244 kts | 321° |
| 2026-04-21 19:16 | -34.76721 | -58.59187 | 4609 ft | 233 kts | 321° |
| 2026-04-21 19:16 | -34.75465 | -58.60378 | 4809 ft | 233 kts | 321° |
| 2026-04-21 19:16 | -34.74123 | -58.61661 | 4826 ft | 250 kts | 320° |
| 2026-04-21 19:17 | -34.71421 | -58.64265 | 4828 ft | 246 kts | 320° |
| 2026-04-21 19:17 | -34.70082 | -58.65563 | 4832 ft | 246 kts | 320° |
| 2026-04-21 19:17 | -34.68743 | -58.66869 | 4830 ft | 247 kts | 320° |
| 2026-04-21 19:18 | -34.67406 | -58.68178 | 4828 ft | 248 kts | 320° |
| 2026-04-21 19:18 | -34.66077 | -58.69481 | 4830 ft | 249 kts | 320° |
| 2026-04-21 19:18 | -34.64726 | -58.70802 | 4831 ft | 249 kts | 320° |
| 2026-04-21 19:18 | -34.63381 | -58.72118 | 4831 ft | 248 kts | 320° |
| 2026-04-21 19:19 | -34.62039 | -58.73434 | 4825 ft | 248 kts | 320° |
| 2026-04-21 19:19 | -34.60691 | -58.74749 | 4802 ft | 247 kts | 320° |
| 2026-04-21 19:19 | -34.59347 | -58.76058 | 4805 ft | 248 kts | 320° |
| 2026-04-21 19:19 | -34.58035 | -58.77339 | 4813 ft | 237 kts | 320° |
| 2026-04-21 19:20 | -34.56725 | -58.78565 | 4817 ft | 238 kts | 328° |
| 2026-04-21 19:20 | -34.55138 | -58.79083 | 4814 ft | 241 kts | 359° |
| 2026-04-21 19:20 | -34.53465 | -58.78913 | 4817 ft | 242 kts | 4° |
| 2026-04-21 19:20 | -34.51796 | -58.78686 | 4819 ft | 241 kts | 3° |
| 2026-04-21 19:21 | -34.50130 | -58.78455 | 4824 ft | 241 kts | 4° |
| 2026-04-21 19:21 | -34.48468 | -58.78209 | 4813 ft | 240 kts | 4° |
| 2026-04-21 19:21 | -34.46808 | -58.77957 | 4811 ft | 240 kts | 4° |
| 2026-04-21 19:21 | -34.45149 | -58.77711 | 4813 ft | 240 kts | 4° |
| 2026-04-21 19:22 | -34.43498 | -58.77476 | 4812 ft | 240 kts | 3° |
| 2026-04-21 19:22 | -34.41803 | -58.77255 | 4507 ft | 248 kts | 3° |
| 2026-04-21 19:22 | -34.40096 | -58.77047 | 4117 ft | 244 kts | 3° |
| 2026-04-21 19:22 | -34.38421 | -58.76841 | 3742 ft | 240 kts | 3° |
| 2026-04-21 19:23 | -34.36782 | -58.76645 | 3398 ft | 232 kts | 3° |
| 2026-04-21 19:23 | -34.35210 | -58.76461 | 3117 ft | 221 kts | 2° |
| 2026-04-21 19:23 | -34.33800 | -58.75990 | 2988 ft | 210 kts | 31° |
| 2026-04-21 19:23 | -34.32933 | -58.74624 | 2936 ft | 205 kts | 73° |
| 2026-04-21 19:24 | -34.32976 | -58.72945 | 2929 ft | 206 kts | 113° |
| 2026-04-21 19:24 | -34.33851 | -58.71608 | 2915 ft | 205 kts | 152° |
| 2026-04-21 19:24 | -34.35134 | -58.70881 | 2893 ft | 204 kts | 159° |
| 2026-04-21 19:24 | -34.36401 | -58.70112 | 2886 ft | 205 kts | 152° |
| 2026-04-21 19:25 | -34.37596 | -58.69177 | 2872 ft | 205 kts | 146° |
| 2026-04-21 19:25 | -34.38727 | -58.68129 | 2876 ft | 205 kts | 142° |
| 2026-04-21 19:25 | -34.39812 | -58.66997 | 2875 ft | 206 kts | 139° |
| 2026-04-21 19:25 | -34.40858 | -58.65813 | 2882 ft | 206 kts | 137° |
| 2026-04-21 19:26 | -34.41874 | -58.64594 | 2881 ft | 206 kts | 136° |
| 2026-04-21 19:26 | -34.42877 | -58.63358 | 2877 ft | 206 kts | 135° |
| 2026-04-21 19:26 | -34.43872 | -58.62119 | 2873 ft | 201 kts | 135° |
| 2026-04-21 19:26 | -34.44822 | -58.60924 | 2714 ft | 199 kts | 135° |
| 2026-04-21 19:27 | -34.45798 | -58.59689 | 2278 ft | 203 kts | 134° |
| 2026-04-21 19:27 | -34.46669 | -58.58380 | 2060 ft | 194 kts | 126° |
| 2026-04-21 19:27 | -34.47407 | -58.57057 | 1960 ft | 187 kts | 124° |
| 2026-04-21 19:27 | -34.48110 | -58.55755 | 1934 ft | 184 kts | 123° |
| 2026-04-21 19:28 | -34.48813 | -58.54438 | 1839 ft | 186 kts | 123° |
| 2026-04-21 19:28 | -34.49504 | -58.53124 | 1741 ft | 185 kts | 124° |
| 2026-04-21 19:28 | -34.50209 | -58.51832 | 1711 ft | 183 kts | 126° |
| 2026-04-21 19:28 | -34.50933 | -58.50555 | 1631 ft | 190 kts | 125° |
| 2026-04-21 19:29 | -34.51669 | -58.49220 | 1356 ft | 189 kts | 124° |
| 2026-04-21 19:29 | -34.52383 | -58.47932 | 1101 ft | 181 kts | 125° |
| 2026-04-21 19:29 | -34.53057 | -58.46735 | 873 ft | 164 kts | 125° |
| 2026-04-21 19:29 | -34.53667 | -58.45624 | 642 ft | 153 kts | 125° |
| 2026-04-21 19:30 | -34.54239 | -58.44581 | 450 ft | 146 kts | 127° |
| 2026-04-21 19:30 | -34.54803 | -58.43580 | 283 ft | 140 kts | 127° |
| 2026-04-21 19:30 | -34.55353 | -58.42608 | 72 ft | 139 kts | 126° |
| 2026-04-21 19:30 | -34.55858 | -58.41693 | 27 ft | 115 kts | 124° |
| 2026-04-21 19:31 | -34.56209 | -58.41069 | 28 ft | 58 kts | 122° |
| 2026-04-21 19:31 | -34.56346 | -58.40814 | 27 ft | 5 kts | 124° |
| 2026-04-21 19:31 | -34.56382 | -58.40750 | 30 ft | 12 kts | 123° |
| 2026-04-21 19:31 | -34.56362 | -58.40671 | 26 ft | 11 kts | 9° |
| 2026-04-21 19:32 | -34.56299 | -58.40710 | 27 ft | 11 kts | 319° |
| 2026-04-21 19:32 | -34.56232 | -58.40786 | 28 ft | 18 kts | 315° |
| 2026-04-21 19:32 | -34.56150 | -58.40927 | 28 ft | 17 kts | 296° |
| 2026-04-21 19:32 | -34.56092 | -58.41030 | 28 ft | 15 kts | 308° |
| 2026-04-21 19:33 | -34.56051 | -58.41093 | 28 ft | 11 kts | 308° |
| 2026-04-21 19:33 | -34.56004 | -58.41165 | 28 ft | 7 kts | 308° |
| 2026-04-21 19:33 | -34.55971 | -58.41216 | 28 ft | 8 kts | 308° |
| 2026-04-21 19:33 | -34.55941 | -58.41263 | 28 ft | 7 kts | 307° |
| 2026-04-21 19:34 | -34.55900 | -58.41284 | 28 ft | 8 kts | 8° |
| 2026-04-21 19:34 | -34.55840 | -58.41287 | 28 ft | 12 kts | 325° |
| 2026-04-21 19:34 | -34.55793 | -58.41357 | 28 ft | 10 kts | 304° |
| 2026-04-21 19:34 | -34.55755 | -58.41431 | 28 ft | 11 kts | 299° |
| 2026-04-21 19:35 | -34.55716 | -58.41512 | 28 ft | 8 kts | 319° |
| 2026-04-21 19:35 | -34.55694 | -58.41525 | 28 ft | 0 kts | 339° |
| 2026-04-21 19:36 | -34.55687 | -58.41528 | 28 ft | 5 kts | 342° |
| 2026-04-21 19:36 | -34.55666 | -58.41527 | 28 ft | 0 kts | 6° |